createdAt,value
2022-11-08T00:02:01.904Z,41.05
2022-11-08T00:04:48.780Z,37.72
2022-11-08T00:07:48.264Z,39.95
2022-11-08T00:10:42.009Z,40.17
2022-11-08T00:13:41.074Z,41.35
2022-11-08T00:16:24.983Z,44.67
2022-11-08T00:19:07.959Z,45.78
2022-11-08T00:21:51.045Z,41.97
2022-11-08T00:24:47.985Z,40.67
2022-11-08T00:27:27.229Z,39.92
2022-11-08T00:30:02.399Z,42.65
2022-11-08T00:32:42.919Z,42.13
2022-11-08T00:35:26.509Z,47.03
2022-11-08T00:38:15.485Z,44.72
2022-11-08T00:41:04.210Z,39.92
2022-11-08T00:43:44.923Z,38.00
2022-11-08T00:46:29.764Z,41.85
2022-11-08T00:49:19.989Z,38.08
2022-11-08T00:52:10.502Z,41.08
2022-11-08T00:54:50.985Z,39.97
2022-11-08T00:57:58.349Z,39.33
2022-11-08T01:00:57.089Z,39.35
2022-11-08T01:03:37.512Z,43.20
2022-11-08T01:06:23.089Z,41.58
2022-11-08T01:09:09.294Z,50.53
2022-11-08T01:11:54.027Z,52.78
2022-11-08T01:14:43.934Z,51.95
2022-11-08T01:17:32.900Z,46.38
2022-11-08T01:20:14.954Z,48.97
2022-11-08T01:22:53.063Z,50.95
2022-11-08T01:25:38.703Z,44.08
2022-11-08T01:28:22.977Z,42.63
2022-11-08T01:31:09.680Z,43.22
2022-11-08T01:33:52.875Z,40.58
2022-11-08T01:36:31.954Z,28.25
2022-11-08T01:39:16.377Z,37.00
2022-11-08T01:42:03.014Z,39.72
2022-11-08T01:45:08.581Z,43.53
2022-11-08T01:47:45.485Z,44.28
2022-11-08T01:50:31.436Z,40.28
2022-11-08T01:53:07.075Z,40.75
2022-11-08T01:55:48.202Z,46.50
2022-11-08T01:58:37.984Z,46.92
2022-11-08T02:01:19.057Z,49.05
2022-11-08T02:04:00.938Z,52.40
2022-11-08T02:06:49.821Z,59.47
2022-11-08T02:09:31.110Z,62.13
2022-11-08T02:12:06.034Z,65.15
2022-11-08T02:14:43.557Z,68.72
2022-11-08T02:17:34.465Z,71.03
2022-11-08T02:20:14.653Z,73.55
2022-11-08T02:23:28.696Z,68.20
2022-11-08T02:26:12.917Z,70.05
2022-11-08T02:28:52.242Z,80.03
2022-11-08T02:31:35.540Z,71.50
2022-11-08T02:34:26.893Z,74.97
2022-11-08T02:37:08.444Z,74.35
2022-11-08T02:39:49.818Z,75.90
2022-11-08T02:42:32.752Z,70.57
2022-11-08T02:45:07.978Z,71.43
2022-11-08T02:47:54.541Z,67.70
2022-11-08T02:50:35.053Z,68.25
2022-11-08T02:53:11.224Z,65.30
2022-11-08T02:56:05.593Z,56.17
2022-11-08T02:58:51.581Z,55.63
2022-11-08T03:01:40.467Z,55.03
2022-11-08T03:04:25.449Z,56.60
2022-11-08T03:07:13.755Z,53.10
2022-11-08T03:09:54.302Z,51.58
2022-11-08T03:12:41.258Z,48.42
2022-11-08T03:15:34.755Z,49.60
2022-11-08T03:18:23.998Z,50.40
2022-11-08T03:21:09.649Z,50.33
2022-11-08T03:23:58.063Z,49.22
2022-11-08T03:26:47.836Z,46.92
2022-11-08T03:29:34.963Z,49.40
2022-11-08T03:32:25.680Z,45.60
2022-11-08T03:35:09.841Z,49.20
2022-11-08T03:38:04.736Z,47.95
2022-11-08T03:40:53.869Z,49.60
2022-11-08T03:43:41.310Z,47.05
2022-11-08T03:46:25.389Z,45.00
2022-11-08T03:51:50.254Z,47.45
2022-11-08T03:54:37.888Z,53.92
2022-11-08T03:57:17.106Z,58.90
2022-11-08T04:00:07.014Z,55.15
2022-11-08T04:03:03.160Z,34.53
2022-11-08T04:05:54.029Z,54.22
2022-11-08T04:08:34.783Z,56.63
2022-11-08T04:11:42.706Z,58.67
2022-11-08T04:14:44.601Z,58.20
2022-11-08T04:17:46.646Z,57.00
2022-11-08T04:20:48.523Z,48.50
2022-11-08T04:23:29.944Z,56.25
2022-11-08T04:26:14.969Z,54.60
2022-11-08T04:28:55.977Z,62.20
2022-11-08T04:31:44.105Z,62.75
2022-11-08T04:34:27.005Z,62.22
2022-11-08T04:37:17.035Z,57.20
2022-11-08T04:40:05.080Z,61.33
2022-11-08T04:42:45.008Z,57.25
2022-11-08T04:45:31.225Z,57.47
2022-11-08T04:48:17.957Z,56.45
2022-11-08T04:50:58.770Z,55.67
2022-11-08T04:53:47.016Z,52.25
2022-11-08T04:56:32.710Z,57.45
2022-11-08T04:59:16.815Z,51.33
2022-11-08T05:02:11.020Z,46.70
2022-11-08T05:07:40.949Z,41.53
2022-11-08T05:10:23.990Z,48.53
2022-11-08T05:13:08.940Z,50.90
2022-11-08T05:15:49.885Z,52.63
2022-11-08T05:18:37.932Z,51.72
2022-11-08T05:21:34.663Z,52.55
2022-11-08T05:24:27.006Z,51.78
2022-11-08T05:27:12.722Z,45.17
2022-11-08T05:30:08.107Z,52.08
2022-11-08T05:32:54.572Z,49.60
2022-11-08T05:35:49.498Z,51.28
2022-11-08T05:38:38.843Z,55.28
2022-11-08T05:41:33.147Z,53.53
2022-11-08T05:44:17.822Z,54.70
2022-11-08T05:47:09.331Z,56.00
2022-11-08T05:49:54.966Z,62.38
2022-11-08T05:52:38.301Z,57.45
2022-11-08T05:55:21.530Z,61.60
2022-11-08T05:58:05.047Z,59.97
2022-11-08T06:00:57.087Z,57.13
2022-11-08T06:03:45.445Z,59.47
2022-11-08T06:06:34.408Z,53.90
2022-11-08T06:09:17.823Z,58.53
2022-11-08T06:12:10.150Z,54.35
2022-11-08T06:14:59.930Z,60.88
2022-11-08T06:17:57.748Z,61.85
2022-11-08T06:20:51.389Z,61.42
2022-11-08T06:23:40.924Z,68.40
2022-11-08T06:26:24.915Z,70.60
2022-11-08T06:29:09.145Z,68.72
2022-11-08T06:31:55.823Z,64.70
2022-11-08T06:34:57.475Z,66.18
2022-11-08T06:37:42.904Z,67.78
2022-11-08T06:40:24.438Z,66.47
2022-11-08T06:43:14.968Z,67.85
2022-11-08T06:45:58.796Z,62.97
2022-11-08T06:48:42.546Z,61.92
2022-11-08T06:51:31.477Z,69.10
2022-11-08T06:54:28.062Z,65.40
2022-11-08T06:57:17.751Z,68.40
2022-11-08T07:00:15.199Z,73.93
2022-11-08T07:03:04.132Z,61.38
2022-11-08T07:05:50.808Z,70.72
2022-11-08T07:08:41.024Z,78.95
2022-11-08T07:11:23.852Z,66.60
2022-11-08T07:14:04.014Z,73.60
2022-11-08T07:16:47.938Z,74.45
2022-11-08T07:19:47.685Z,79.35
2022-11-08T07:22:34.369Z,67.47
2022-11-08T07:25:22.225Z,75.97
2022-11-08T07:28:09.600Z,71.60
2022-11-08T07:30:59.895Z,64.95
2022-11-08T07:33:45.938Z,60.53
2022-11-08T07:36:41.923Z,64.32
2022-11-08T07:39:22.945Z,64.10
2022-11-08T07:42:11.495Z,68.13
2022-11-08T07:45:02.914Z,61.63
2022-11-08T07:47:46.943Z,56.05
2022-11-08T07:50:44.448Z,59.85
2022-11-08T07:53:30.942Z,55.60
2022-11-08T07:56:12.134Z,60.90
2022-11-08T07:59:02.163Z,56.38
2022-11-08T08:01:48.043Z,54.10
2022-11-08T08:04:34.424Z,50.33
2022-11-08T08:07:26.125Z,51.22
2022-11-08T08:10:10.908Z,54.78
2022-11-08T08:12:46.794Z,49.05
2022-11-08T08:15:29.831Z,58.78
2022-11-08T08:18:06.950Z,58.78
2022-11-08T08:20:50.014Z,56.03
2022-11-08T08:23:51.634Z,33.97
2022-11-08T08:26:36.769Z,42.92
2022-11-08T08:29:21.609Z,49.67
2022-11-08T08:35:15.790Z,35.10
2022-11-08T08:38:11.231Z,32.95
2022-11-08T08:40:56.730Z,33.78
2022-11-08T08:43:45.739Z,32.22
2022-11-08T08:46:37.283Z,32.78
2022-11-08T08:49:29.005Z,30.95
2022-11-08T08:55:06.111Z,28.23
2022-11-08T08:57:48.683Z,31.35
2022-11-08T09:03:32.003Z,32.47
2022-11-08T09:06:15.935Z,33.58
2022-11-08T09:08:58.100Z,34.70
2022-11-08T09:11:42.003Z,33.90
2022-11-08T09:14:28.740Z,32.60
2022-11-08T09:17:09.210Z,32.83
2022-11-08T09:20:08.523Z,32.33
2022-11-08T09:22:51.043Z,29.98
2022-11-08T09:25:44.002Z,28.30
2022-11-08T09:28:23.319Z,27.27
2022-11-08T09:31:07.475Z,28.42
2022-11-08T09:33:58.742Z,27.23
2022-11-08T09:36:51.401Z,28.45
2022-11-08T09:39:44.584Z,29.15
2022-11-08T09:42:57.284Z,30.83
2022-11-08T09:45:44.915Z,33.97
2022-11-08T09:48:51.954Z,37.95
2022-11-08T09:51:37.253Z,37.70
2022-11-08T09:54:46.125Z,36.15
2022-11-08T09:57:35.804Z,34.28
2022-11-08T10:00:17.941Z,36.05
2022-11-08T10:03:04.682Z,33.70
2022-11-08T10:05:56.347Z,36.42
2022-11-08T10:08:55.745Z,35.47
2022-11-08T10:12:18.291Z,36.42
2022-11-08T10:15:28.032Z,34.75
2022-11-08T10:18:44.597Z,37.90
2022-11-08T10:22:00.483Z,32.97
2022-11-08T10:24:49.247Z,34.38
2022-11-08T10:27:45.759Z,33.60
2022-11-08T10:30:28.130Z,32.28
2022-11-08T10:33:40.363Z,31.27
2022-11-08T10:36:26.419Z,32.15
2022-11-08T10:39:09.994Z,31.48
2022-11-08T10:42:10.016Z,30.02
2022-11-08T10:44:48.552Z,27.30
2022-11-08T10:47:31.883Z,27.70
2022-11-08T10:50:34.026Z,25.63
2022-11-08T10:53:22.639Z,28.83
2022-11-08T10:56:35.521Z,29.35
2022-11-08T10:59:35.709Z,31.17
2022-11-08T11:02:38.944Z,31.30
2022-11-08T11:06:04.034Z,27.90
2022-11-08T11:08:58.337Z,28.05
2022-11-08T11:11:45.914Z,28.92
2022-11-08T11:14:37.764Z,31.92
2022-11-08T11:17:39.091Z,31.98
2022-11-08T11:20:33.901Z,34.90
2022-11-08T11:23:20.063Z,34.58
2022-11-08T11:25:57.742Z,31.85
2022-11-08T11:28:44.983Z,32.70
2022-11-08T11:31:27.938Z,33.38
2022-11-08T11:34:23.677Z,34.17
2022-11-08T11:37:16.285Z,31.85
2022-11-08T11:40:17.812Z,32.63
2022-11-08T11:43:13.788Z,29.23
2022-11-08T11:45:55.874Z,28.30
2022-11-08T11:48:49.853Z,30.15
2022-11-08T11:51:43.424Z,29.73
2022-11-08T11:54:29.004Z,26.63
2022-11-08T11:57:23.214Z,29.48
2022-11-08T12:00:20.467Z,28.17
2022-11-08T12:03:27.404Z,26.08
2022-11-08T12:07:03.739Z,26.77
2022-11-08T12:10:22.754Z,27.25
2022-11-08T12:16:47.919Z,26.98
2022-11-08T12:19:37.217Z,27.57
2022-11-08T12:22:57.906Z,27.17
2022-11-08T12:26:20.003Z,27.38
2022-11-08T12:29:22.629Z,30.33
2022-11-08T12:32:46.889Z,30.10
2022-11-08T12:36:10.774Z,31.40
2022-11-08T12:39:18.049Z,32.35
2022-11-08T12:42:32.454Z,33.30
2022-11-08T12:45:17.983Z,33.40
2022-11-08T12:48:11.664Z,33.38
2022-11-08T12:51:21.869Z,33.83
2022-11-08T12:54:29.704Z,36.40
2022-11-08T12:57:16.471Z,36.92
2022-11-08T12:59:56.568Z,34.78
2022-11-08T13:02:45.642Z,36.72
2022-11-08T13:05:54.104Z,35.55
2022-11-08T13:08:50.886Z,36.45
2022-11-08T13:11:55.058Z,38.03
2022-11-08T13:14:41.317Z,38.20
2022-11-08T13:17:32.974Z,37.85
2022-11-08T13:20:48.392Z,38.78
2022-11-08T13:23:36.016Z,39.78
2022-11-08T13:26:50.174Z,41.15
2022-11-08T13:29:36.734Z,42.17
2022-11-08T13:32:52.714Z,42.75
2022-11-08T13:35:42.558Z,47.35
2022-11-08T13:39:05.494Z,50.15
2022-11-08T13:42:21.126Z,51.22
2022-11-08T13:45:25.807Z,45.33
2022-11-08T13:48:26.319Z,47.10
2022-11-08T13:51:27.166Z,46.67
2022-11-08T13:54:20.076Z,48.58
2022-11-08T13:57:06.599Z,47.05
2022-11-08T14:00:05.928Z,45.08
2022-11-08T14:02:58.806Z,44.00
2022-11-08T14:05:51.934Z,42.33
2022-11-08T14:08:50.805Z,46.05
2022-11-08T14:11:52.335Z,40.60
2022-11-08T14:14:53.596Z,44.60
2022-11-08T14:18:05.154Z,45.80
2022-11-08T14:20:54.839Z,45.30
2022-11-08T14:23:42.884Z,45.78
2022-11-08T14:26:34.758Z,48.30
2022-11-08T14:29:31.487Z,46.08
2022-11-08T14:32:28.954Z,50.50
2022-11-08T14:35:27.302Z,48.25
2022-11-08T14:38:10.650Z,49.60
2022-11-08T14:41:38.017Z,51.72
2022-11-08T14:47:42.207Z,53.83
2022-11-08T14:50:35.028Z,52.78
2022-11-08T14:53:35.635Z,54.53
2022-11-08T14:56:44.266Z,56.35
2022-11-08T14:59:30.430Z,59.72
2022-11-08T15:02:28.764Z,54.50
2022-11-08T15:05:36.338Z,58.42
2022-11-08T15:08:38.305Z,58.35
2022-11-08T15:11:52.488Z,57.90
2022-11-08T15:14:40.867Z,58.03
2022-11-08T15:17:46.227Z,64.45
2022-11-08T15:20:33.063Z,61.25
2022-11-08T15:23:28.261Z,60.38
2022-11-08T15:26:37.957Z,59.33
2022-11-08T15:29:36.544Z,61.20
2022-11-08T15:32:23.276Z,64.70
2022-11-08T15:35:05.100Z,66.68
2022-11-08T15:37:48.544Z,72.43
2022-11-08T15:40:39.978Z,73.68
2022-11-08T15:43:50.899Z,74.57
2022-11-08T15:46:54.276Z,64.30
2022-11-08T15:49:48.966Z,67.63
2022-11-08T15:52:35.317Z,71.90
2022-11-08T15:55:21.602Z,71.68
2022-11-08T15:58:07.302Z,73.57
2022-11-08T16:00:58.079Z,78.63
2022-11-08T16:03:54.749Z,80.82
2022-11-08T16:06:46.997Z,74.63
2022-11-08T16:10:01.181Z,73.82
2022-11-08T16:12:46.321Z,75.88
2022-11-08T16:15:40.629Z,76.80
2022-11-08T16:18:38.225Z,71.72
2022-11-08T16:21:28.885Z,74.13
2022-11-08T16:24:29.699Z,72.55
2022-11-08T16:27:20.053Z,70.05
2022-11-08T16:30:23.872Z,74.18
2022-11-08T16:33:36.137Z,73.95
2022-11-08T16:36:29.889Z,77.75
2022-11-08T16:39:26.335Z,69.53
2022-11-08T16:42:13.232Z,69.65
2022-11-08T16:45:01.883Z,68.85
2022-11-08T16:47:50.008Z,71.75
2022-11-08T16:50:45.194Z,67.18
2022-11-08T16:53:32.382Z,69.88
2022-11-08T16:56:33.891Z,73.55
2022-11-08T16:59:21.036Z,70.50
2022-11-08T17:02:11.000Z,70.18
2022-11-08T17:04:59.367Z,69.18
2022-11-08T17:07:45.508Z,70.47
2022-11-08T17:13:40.111Z,74.28
2022-11-08T17:16:22.944Z,76.50
2022-11-08T17:19:12.311Z,75.40
2022-11-08T17:22:03.580Z,70.32
2022-11-08T17:24:52.986Z,75.07
2022-11-08T17:27:36.060Z,79.05
2022-11-08T17:30:27.344Z,79.43
2022-11-08T17:33:21.229Z,70.43
2022-11-08T17:36:09.070Z,70.30
2022-11-08T17:38:59.903Z,73.65
2022-11-08T17:41:46.916Z,72.63
2022-11-08T17:44:33.300Z,74.35
2022-11-08T17:47:18.961Z,66.97
2022-11-08T17:49:58.029Z,66.32
2022-11-08T17:52:50.760Z,65.85
2022-11-08T17:55:35.917Z,69.57
2022-11-08T17:58:22.260Z,64.65
2022-11-08T18:01:16.646Z,65.53
2022-11-08T18:04:06.505Z,69.53
2022-11-08T18:06:47.022Z,65.93
2022-11-08T18:09:32.549Z,66.38
2022-11-08T18:12:26.713Z,67.57
2022-11-08T18:15:16.762Z,66.75
2022-11-08T18:18:06.934Z,66.63
2022-11-08T18:21:02.093Z,70.45
2022-11-08T18:23:47.964Z,72.68
2022-11-08T18:26:43.272Z,74.22
2022-11-08T18:29:30.780Z,71.38
2022-11-08T18:32:11.929Z,68.70
2022-11-08T18:34:55.084Z,63.15
2022-11-08T18:37:46.068Z,65.40
2022-11-08T18:40:26.801Z,68.60
2022-11-08T18:43:12.786Z,64.43
2022-11-08T18:46:12.570Z,70.30
2022-11-08T18:48:56.643Z,64.90
2022-11-08T18:51:54.880Z,69.13
2022-11-08T18:54:38.926Z,64.88
2022-11-08T18:57:30.663Z,63.83
2022-11-08T19:00:13.743Z,56.15
2022-11-08T19:03:07.067Z,59.28
2022-11-08T19:09:00.604Z,61.88
2022-11-08T19:11:59.467Z,63.42
2022-11-08T19:14:58.664Z,60.92
2022-11-08T19:18:06.101Z,60.92
2022-11-08T19:21:02.941Z,57.42
2022-11-08T19:23:49.464Z,62.67
2022-11-08T19:26:41.203Z,61.80
2022-11-08T19:29:32.507Z,66.47
2022-11-08T19:32:19.084Z,70.13
2022-11-08T19:35:04.798Z,63.05
2022-11-08T19:37:51.682Z,63.40
2022-11-08T19:40:36.210Z,59.55
2022-11-08T19:43:18.424Z,64.88
2022-11-08T19:46:06.214Z,61.03
2022-11-08T19:48:47.594Z,62.50
2022-11-08T19:51:32.336Z,61.05
2022-11-08T19:54:16.901Z,57.90
2022-11-08T19:57:04.598Z,59.92
2022-11-08T19:59:52.896Z,60.00
2022-11-08T20:02:39.225Z,57.30
2022-11-08T20:05:28.973Z,59.90
2022-11-08T20:08:14.946Z,61.13
2022-11-08T20:11:18.777Z,59.47
2022-11-08T20:14:10.766Z,54.95
2022-11-08T20:17:18.298Z,54.55
2022-11-08T20:20:10.135Z,59.72
2022-11-08T20:23:07.769Z,60.53
2022-11-08T20:25:54.779Z,54.47
2022-11-08T20:28:41.742Z,54.78
2022-11-08T20:31:38.936Z,57.38
2022-11-08T20:34:29.824Z,59.08
2022-11-08T20:37:24.341Z,61.70
2022-11-08T20:40:10.493Z,63.05
2022-11-08T20:42:59.027Z,62.38
2022-11-08T20:45:50.873Z,61.38
2022-11-08T20:48:28.842Z,67.43
2022-11-08T20:51:17.739Z,67.18
2022-11-08T20:54:07.156Z,64.72
2022-11-08T20:57:07.401Z,65.65
2022-11-08T20:59:47.686Z,65.38
2022-11-08T21:02:44.909Z,66.45
2022-11-08T21:05:34.567Z,62.95
2022-11-08T21:11:32.683Z,58.65
2022-11-08T21:14:24.186Z,60.85
2022-11-08T21:17:25.121Z,56.78
2022-11-08T21:20:05.818Z,57.75
2022-11-08T21:22:45.105Z,62.70
2022-11-08T21:25:26.929Z,60.50
2022-11-08T21:28:10.512Z,57.00
2022-11-08T21:30:52.468Z,58.42
2022-11-08T21:33:31.091Z,57.85
2022-11-08T21:36:12.875Z,59.28
2022-11-08T21:38:59.747Z,54.88
2022-11-08T21:41:44.898Z,55.83
2022-11-08T21:44:32.921Z,55.92
2022-11-08T21:47:13.564Z,54.65
2022-11-08T21:49:54.415Z,54.30
2022-11-08T21:52:40.297Z,56.08
2022-11-08T21:55:25.776Z,55.42
2022-11-08T21:58:14.638Z,54.35
2022-11-08T22:00:59.958Z,59.17
2022-11-08T22:03:53.238Z,58.47
2022-11-08T22:06:47.684Z,57.95
2022-11-08T22:09:40.128Z,59.35
2022-11-08T22:12:23.920Z,56.47
2022-11-08T22:15:04.873Z,59.08
2022-11-08T22:21:28.811Z,59.83
2022-11-08T22:24:05.914Z,58.63
2022-11-08T22:26:48.943Z,62.80
2022-11-08T22:29:42.907Z,65.00
2022-11-08T22:32:26.167Z,64.65
2022-11-08T22:35:15.111Z,63.97
2022-11-08T22:37:58.329Z,64.40
2022-11-08T22:40:46.513Z,66.15
2022-11-08T22:43:38.145Z,61.72
2022-11-08T22:46:21.028Z,58.50
2022-11-08T22:49:11.248Z,57.85
2022-11-08T22:51:55.070Z,57.33
2022-11-08T22:54:38.922Z,61.75
2022-11-08T22:57:30.787Z,62.97
2022-11-08T23:00:19.878Z,52.70
2022-11-08T23:02:59.950Z,56.63
2022-11-08T23:05:45.181Z,57.28
2022-11-08T23:08:25.924Z,60.38
2022-11-08T23:11:31.272Z,57.70
2022-11-08T23:14:37.186Z,57.45
2022-11-08T23:17:18.175Z,51.78
2022-11-08T23:20:15.763Z,55.35
2022-11-08T23:23:18.285Z,53.28
2022-11-08T23:26:04.547Z,49.40
2022-11-08T23:29:02.903Z,53.20
2022-11-08T23:31:48.137Z,51.60
2022-11-08T23:34:29.926Z,54.55
2022-11-08T23:37:19.951Z,51.15
2022-11-08T23:40:23.307Z,50.15
2022-11-08T23:43:33.021Z,54.40
2022-11-08T23:46:28.743Z,56.78
2022-11-08T23:49:15.800Z,53.55
2022-11-08T23:52:08.860Z,53.47
2022-11-08T23:55:03.994Z,56.03
2022-11-08T23:57:47.903Z,54.80
